sensor_id;sensor_type;location;lat;lon;timestamp;P1;durP1;ratioP1;P2;durP2;ratioP2
5533;SDS011;2789;51.902;7.636;2022-08-06T00:00:02;3.83;;;1.48;;
5533;SDS011;2789;51.902;7.636;2022-08-06T00:01:11;2.95;;;1.65;;
5533;SDS011;2789;51.902;7.636;2022-08-06T00:02:14;1.80;;;1.70;;
5533;SDS011;2789;51.902;7.636;2022-08-06T00:03:23;4.22;;;1.77;;
5533;SDS011;2789;51.902;7.636;2022-08-06T00:04:26;5.65;;;1.67;;
5533;SDS011;2789;51.902;7.636;2022-08-06T00:05:28;2.85;;;1.50;;
5533;SDS011;2789;51.902;7.636;2022-08-06T00:06:37;2.03;;;1.58;;
5533;SDS011;2789;51.902;7.636;2022-08-06T00:07:38;2.42;;;1.40;;
5533;SDS011;2789;51.902;7.636;2022-08-06T00:08:48;4.80;;;1.98;;
5533;SDS011;2789;51.902;7.636;2022-08-06T00:09:52;3.00;;;2.10;;
5533;SDS011;2789;51.902;7.636;2022-08-06T00:11:01;4.40;;;1.67;;
5533;SDS011;2789;51.902;7.636;2022-08-06T00:12:04;2.30;;;1.75;;
5533;SDS011;2789;51.902;7.636;2022-08-06T00:13:13;1.98;;;1.77;;
5533;SDS011;2789;51.902;7.636;2022-08-06T00:14:16;2.33;;;1.52;;
5533;SDS011;2789;51.902;7.636;2022-08-06T00:15:18;1.65;;;1.55;;
5533;SDS011;2789;51.902;7.636;2022-08-06T00:16:42;2.05;;;1.30;;
5533;SDS011;2789;51.902;7.636;2022-08-06T00:17:54;1.73;;;1.40;;
5533;SDS011;2789;51.902;7.636;2022-08-06T00:18:57;2.65;;;1.65;;
5533;SDS011;2789;51.902;7.636;2022-08-06T00:20:00;1.85;;;1.67;;
5533;SDS011;2789;51.902;7.636;2022-08-06T00:21:04;3.42;;;1.63;;
5533;SDS011;2789;51.902;7.636;2022-08-06T00:22:25;2.83;;;1.70;;
5533;SDS011;2789;51.902;7.636;2022-08-06T00:23:29;3.15;;;1.67;;
5533;SDS011;2789;51.902;7.636;2022-08-06T00:24:51;6.20;;;1.70;;
5533;SDS011;2789;51.902;7.636;2022-08-06T00:25:55;4.63;;;2.33;;
5533;SDS011;2789;51.902;7.636;2022-08-06T00:26:57;1.75;;;1.40;;
5533;SDS011;2789;51.902;7.636;2022-08-06T00:28:12;2.33;;;2.13;;
5533;SDS011;2789;51.902;7.636;2022-08-06T00:29:15;2.15;;;1.42;;
5533;SDS011;2789;51.902;7.636;2022-08-06T00:30:37;1.80;;;1.70;;
5533;SDS011;2789;51.902;7.636;2022-08-06T00:31:39;3.25;;;1.80;;
5533;SDS011;2789;51.902;7.636;2022-08-06T00:32:45;3.50;;;1.90;;
5533;SDS011;2789;51.902;7.636;2022-08-06T00:33:52;1.80;;;1.60;;
5533;SDS011;2789;51.902;7.636;2022-08-06T00:34:58;4.45;;;1.92;;
5533;SDS011;2789;51.902;7.636;2022-08-06T00:36:00;1.98;;;1.77;;
5533;SDS011;2789;51.902;7.636;2022-08-06T00:37:03;1.75;;;1.65;;
5533;SDS011;2789;51.902;7.636;2022-08-06T00:38:19;2.15;;;1.50;;
5533;SDS011;2789;51.902;7.636;2022-08-06T00:39:21;4.43;;;1.75;;
5533;SDS011;2789;51.902;7.636;2022-08-06T00:40:23;2.20;;;1.63;;
5533;SDS011;2789;51.902;7.636;2022-08-06T00:41:26;2.95;;;1.80;;
5533;SDS011;2789;51.902;7.636;2022-08-06T00:42:42;4.07;;;1.80;;
5533;SDS011;2789;51.902;7.636;2022-08-06T00:43:50;1.52;;;1.42;;
5533;SDS011;2789;51.902;7.636;2022-08-06T00:44:52;2.55;;;1.50;;
5533;SDS011;2789;51.902;7.636;2022-08-06T00:45:55;2.42;;;1.85;;
5533;SDS011;2789;51.902;7.636;2022-08-06T00:46:56;2.63;;;1.58;;
5533;SDS011;2789;51.902;7.636;2022-08-06T00:48:01;3.25;;;1.70;;
5533;SDS011;2789;51.902;7.636;2022-08-06T00:49:07;2.60;;;1.65;;
5533;SDS011;2789;51.902;7.636;2022-08-06T00:50:12;2.75;;;1.77;;
5533;SDS011;2789;51.902;7.636;2022-08-06T00:51:18;3.83;;;1.90;;
5533;SDS011;2789;51.902;7.636;2022-08-06T00:52:21;1.50;;;1.40;;
5533;SDS011;2789;51.902;7.636;2022-08-06T00:53:27;1.85;;;1.60;;
5533;SDS011;2789;51.902;7.636;2022-08-06T00:54:34;3.90;;;1.80;;
5533;SDS011;2789;51.902;7.636;2022-08-06T00:55:39;5.65;;;1.45;;
5533;SDS011;2789;51.902;7.636;2022-08-06T00:57:00;2.40;;;1.77;;
5533;SDS011;2789;51.902;7.636;2022-08-06T00:58:07;2.03;;;1.73;;
5533;SDS011;2789;51.902;7.636;2022-08-06T00:59:13;4.30;;;1.80;;
5533;SDS011;2789;51.902;7.636;2022-08-06T01:00:16;3.55;;;1.50;;
5533;SDS011;2789;51.902;7.636;2022-08-06T01:01:31;4.03;;;1.77;;
5533;SDS011;2789;51.902;7.636;2022-08-06T01:02:51;3.33;;;1.50;;
5533;SDS011;2789;51.902;7.636;2022-08-06T01:03:55;3.45;;;1.60;;
5533;SDS011;2789;51.902;7.636;2022-08-06T01:04:57;2.08;;;1.63;;
5533;SDS011;2789;51.902;7.636;2022-08-06T01:06:19;1.75;;;1.65;;
5533;SDS011;2789;51.902;7.636;2022-08-06T01:07:42;2.55;;;1.70;;
5533;SDS011;2789;51.902;7.636;2022-08-06T01:08:52;3.17;;;1.80;;
5533;SDS011;2789;51.902;7.636;2022-08-06T01:09:55;3.22;;;2.00;;
5533;SDS011;2789;51.902;7.636;2022-08-06T01:10:59;3.22;;;1.95;;
5533;SDS011;2789;51.902;7.636;2022-08-06T01:12:03;2.35;;;1.70;;
5533;SDS011;2789;51.902;7.636;2022-08-06T01:13:10;2.65;;;1.58;;
5533;SDS011;2789;51.902;7.636;2022-08-06T01:14:26;2.22;;;2.00;;
5533;SDS011;2789;51.902;7.636;2022-08-06T01:15:39;2.30;;;1.40;;
5533;SDS011;2789;51.902;7.636;2022-08-06T01:17:02;1.80;;;1.65;;
5533;SDS011;2789;51.902;7.636;2022-08-06T01:18:25;4.03;;;2.53;;
5533;SDS011;2789;51.902;7.636;2022-08-06T01:19:41;3.60;;;1.75;;
5533;SDS011;2789;51.902;7.636;2022-08-06T01:21:17;2.88;;;1.88;;
5533;SDS011;2789;51.902;7.636;2022-08-06T01:22:51;3.58;;;1.85;;
5533;SDS011;2789;51.902;7.636;2022-08-06T01:24:09;1.92;;;1.70;;
5533;SDS011;2789;51.902;7.636;2022-08-06T01:25:36;1.55;;;1.40;;
5533;SDS011;2789;51.902;7.636;2022-08-06T01:26:49;2.33;;;1.88;;
5533;SDS011;2789;51.902;7.636;2022-08-06T01:27:58;4.47;;;1.80;;
5533;SDS011;2789;51.902;7.636;2022-08-06T01:29:02;2.40;;;1.50;;
5533;SDS011;2789;51.902;7.636;2022-08-06T01:30:15;3.55;;;2.00;;
5533;SDS011;2789;51.902;7.636;2022-08-06T01:31:21;1.77;;;1.50;;
5533;SDS011;2789;51.902;7.636;2022-08-06T01:32:30;2.85;;;1.88;;
5533;SDS011;2789;51.902;7.636;2022-08-06T01:33:37;1.60;;;1.48;;
5533;SDS011;2789;51.902;7.636;2022-08-06T01:34:47;2.60;;;1.50;;
5533;SDS011;2789;51.902;7.636;2022-08-06T01:35:54;3.90;;;2.20;;
5533;SDS011;2789;51.902;7.636;2022-08-06T01:37:03;3.70;;;1.70;;
5533;SDS011;2789;51.902;7.636;2022-08-06T01:38:12;2.47;;;2.13;;
5533;SDS011;2789;51.902;7.636;2022-08-06T01:39:18;2.83;;;1.63;;
5533;SDS011;2789;51.902;7.636;2022-08-06T01:40:41;2.00;;;1.35;;
5533;SDS011;2789;51.902;7.636;2022-08-06T01:41:51;1.80;;;1.70;;
5533;SDS011;2789;51.902;7.636;2022-08-06T01:43:01;1.90;;;1.80;;
5533;SDS011;2789;51.902;7.636;2022-08-06T01:44:25;3.72;;;1.80;;
5533;SDS011;2789;51.902;7.636;2022-08-06T01:45:31;2.85;;;1.85;;
5533;SDS011;2789;51.902;7.636;2022-08-06T01:46:56;2.20;;;1.73;;
5533;SDS011;2789;51.902;7.636;2022-08-06T01:48:01;1.83;;;1.70;;
5533;SDS011;2789;51.902;7.636;2022-08-06T01:49:06;3.05;;;1.90;;
5533;SDS011;2789;51.902;7.636;2022-08-06T01:50:30;3.28;;;2.13;;
5533;SDS011;2789;51.902;7.636;2022-08-06T01:51:35;2.20;;;1.75;;
5533;SDS011;2789;51.902;7.636;2022-08-06T01:52:58;3.15;;;1.65;;
5533;SDS011;2789;51.902;7.636;2022-08-06T01:54:03;5.63;;;2.13;;
5533;SDS011;2789;51.902;7.636;2022-08-06T01:55:08;5.88;;;1.85;;
5533;SDS011;2789;51.902;7.636;2022-08-06T01:56:14;3.33;;;1.88;;
5533;SDS011;2789;51.902;7.636;2022-08-06T01:57:31;4.18;;;1.40;;
5533;SDS011;2789;51.902;7.636;2022-08-06T01:58:56;2.28;;;1.45;;
5533;SDS011;2789;51.902;7.636;2022-08-06T02:00:00;1.80;;;1.70;;
5533;SDS011;2789;51.902;7.636;2022-08-06T02:01:04;2.42;;;1.70;;
5533;SDS011;2789;51.902;7.636;2022-08-06T02:02:11;2.53;;;1.90;;
5533;SDS011;2789;51.902;7.636;2022-08-06T02:03:21;2.38;;;2.17;;
5533;SDS011;2789;51.902;7.636;2022-08-06T02:04:26;3.83;;;1.88;;
5533;SDS011;2789;51.902;7.636;2022-08-06T02:05:30;2.03;;;1.88;;
5533;SDS011;2789;51.902;7.636;2022-08-06T02:06:45;4.00;;;2.13;;
5533;SDS011;2789;51.902;7.636;2022-08-06T02:07:50;1.98;;;1.65;;
5533;SDS011;2789;51.902;7.636;2022-08-06T02:09:14;1.83;;;1.65;;
5533;SDS011;2789;51.902;7.636;2022-08-06T02:10:24;4.55;;;2.22;;
5533;SDS011;2789;51.902;7.636;2022-08-06T02:11:26;2.53;;;2.05;;
5533;SDS011;2789;51.902;7.636;2022-08-06T02:12:49;2.13;;;1.95;;
5533;SDS011;2789;51.902;7.636;2022-08-06T02:13:52;2.50;;;2.00;;
5533;SDS011;2789;51.902;7.636;2022-08-06T02:14:58;1.95;;;1.85;;
5533;SDS011;2789;51.902;7.636;2022-08-06T02:16:02;2.58;;;1.95;;
5533;SDS011;2789;51.902;7.636;2022-08-06T02:17:04;5.05;;;2.47;;
5533;SDS011;2789;51.902;7.636;2022-08-06T02:18:15;2.35;;;1.95;;
5533;SDS011;2789;51.902;7.636;2022-08-06T02:19:37;3.45;;;2.20;;
5533;SDS011;2789;51.902;7.636;2022-08-06T02:21:00;2.17;;;1.92;;
5533;SDS011;2789;51.902;7.636;2022-08-06T02:22:22;3.70;;;2.17;;
5533;SDS011;2789;51.902;7.636;2022-08-06T02:23:27;4.57;;;2.50;;
5533;SDS011;2789;51.902;7.636;2022-08-06T02:24:34;2.08;;;1.98;;
5533;SDS011;2789;51.902;7.636;2022-08-06T02:25:38;5.07;;;2.10;;
5533;SDS011;2789;51.902;7.636;2022-08-06T02:26:41;3.17;;;2.30;;
5533;SDS011;2789;51.902;7.636;2022-08-06T02:27:46;4.05;;;2.05;;
5533;SDS011;2789;51.902;7.636;2022-08-06T02:28:59;3.22;;;2.03;;
5533;SDS011;2789;51.902;7.636;2022-08-06T02:30:05;2.80;;;2.17;;
5533;SDS011;2789;51.902;7.636;2022-08-06T02:31:08;2.20;;;2.00;;
5533;SDS011;2789;51.902;7.636;2022-08-06T02:32:12;2.70;;;2.10;;
5533;SDS011;2789;51.902;7.636;2022-08-06T02:33:18;4.80;;;2.63;;
5533;SDS011;2789;51.902;7.636;2022-08-06T02:34:41;4.80;;;1.90;;
5533;SDS011;2789;51.902;7.636;2022-08-06T02:35:46;2.67;;;2.40;;
5533;SDS011;2789;51.902;7.636;2022-08-06T02:36:52;3.00;;;2.20;;
5533;SDS011;2789;51.902;7.636;2022-08-06T02:38:00;2.85;;;2.20;;
5533;SDS011;2789;51.902;7.636;2022-08-06T02:39:11;2.33;;;2.13;;
5533;SDS011;2789;51.902;7.636;2022-08-06T02:40:18;4.72;;;2.10;;
5533;SDS011;2789;51.902;7.636;2022-08-06T02:41:28;9.05;;;2.10;;
5533;SDS011;2789;51.902;7.636;2022-08-06T02:42:39;2.42;;;2.22;;
5533;SDS011;2789;51.902;7.636;2022-08-06T02:43:49;2.65;;;2.20;;
5533;SDS011;2789;51.902;7.636;2022-08-06T02:44:55;3.47;;;1.90;;
5533;SDS011;2789;51.902;7.636;2022-08-06T02:46:03;5.57;;;2.33;;
5533;SDS011;2789;51.902;7.636;2022-08-06T02:47:12;2.53;;;2.33;;
5533;SDS011;2789;51.902;7.636;2022-08-06T02:48:19;2.60;;;2.38;;
5533;SDS011;2789;51.902;7.636;2022-08-06T02:49:33;2.38;;;2.17;;
5533;SDS011;2789;51.902;7.636;2022-08-06T02:50:39;2.53;;;2.15;;
5533;SDS011;2789;51.902;7.636;2022-08-06T02:51:48;2.83;;;2.35;;
5533;SDS011;2789;51.902;7.636;2022-08-06T02:53:13;3.10;;;2.80;;
5533;SDS011;2789;51.902;7.636;2022-08-06T02:54:27;2.67;;;2.47;;
5533;SDS011;2789;51.902;7.636;2022-08-06T02:55:38;2.75;;;2.28;;
5533;SDS011;2789;51.902;7.636;2022-08-06T02:56:46;3.05;;;2.40;;
5533;SDS011;2789;51.902;7.636;2022-08-06T02:57:51;3.95;;;2.35;;
5533;SDS011;2789;51.902;7.636;2022-08-06T02:58:58;3.05;;;2.25;;
5533;SDS011;2789;51.902;7.636;2022-08-06T03:00:02;3.60;;;2.03;;
5533;SDS011;2789;51.902;7.636;2022-08-06T03:01:10;2.60;;;2.40;;
5533;SDS011;2789;51.902;7.636;2022-08-06T03:02:22;3.00;;;2.53;;
5533;SDS011;2789;51.902;7.636;2022-08-06T03:03:26;2.90;;;2.38;;
5533;SDS011;2789;51.902;7.636;2022-08-06T03:04:35;3.90;;;2.30;;
5533;SDS011;2789;51.902;7.636;2022-08-06T03:05:48;2.72;;;1.98;;
5533;SDS011;2789;51.902;7.636;2022-08-06T03:06:56;2.60;;;2.17;;
5533;SDS011;2789;51.902;7.636;2022-08-06T03:08:01;4.13;;;2.00;;
5533;SDS011;2789;51.902;7.636;2022-08-06T03:09:05;2.55;;;2.17;;
5533;SDS011;2789;51.902;7.636;2022-08-06T03:10:10;2.33;;;2.05;;
5533;SDS011;2789;51.902;7.636;2022-08-06T03:11:13;2.65;;;2.35;;
5533;SDS011;2789;51.902;7.636;2022-08-06T03:12:17;4.28;;;2.25;;
5533;SDS011;2789;51.902;7.636;2022-08-06T03:13:39;2.25;;;2.03;;
5533;SDS011;2789;51.902;7.636;2022-08-06T03:14:46;3.75;;;2.20;;
5533;SDS011;2789;51.902;7.636;2022-08-06T03:16:10;2.53;;;2.33;;
5533;SDS011;2789;51.902;7.636;2022-08-06T03:17:24;4.30;;;2.30;;
5533;SDS011;2789;51.902;7.636;2022-08-06T03:18:29;3.17;;;1.98;;
5533;SDS011;2789;51.902;7.636;2022-08-06T03:19:33;1.77;;;1.67;;
5533;SDS011;2789;51.902;7.636;2022-08-06T03:20:55;3.53;;;2.05;;
5533;SDS011;2789;51.902;7.636;2022-08-06T03:21:58;4.80;;;3.67;;
5533;SDS011;2789;51.902;7.636;2022-08-06T03:23:02;3.10;;;2.38;;
5533;SDS011;2789;51.902;7.636;2022-08-06T03:24:06;4.22;;;2.47;;
5533;SDS011;2789;51.902;7.636;2022-08-06T03:25:08;4.25;;;2.63;;
5533;SDS011;2789;51.902;7.636;2022-08-06T03:26:15;3.17;;;1.98;;
5533;SDS011;2789;51.902;7.636;2022-08-06T03:27:19;6.13;;;2.95;;
5533;SDS011;2789;51.902;7.636;2022-08-06T03:28:22;3.33;;;2.28;;
5533;SDS011;2789;51.902;7.636;2022-08-06T03:29:25;4.90;;;2.60;;
5533;SDS011;2789;51.902;7.636;2022-08-06T03:30:30;2.63;;;2.40;;
5533;SDS011;2789;51.902;7.636;2022-08-06T03:31:35;11.40;;;2.75;;
5533;SDS011;2789;51.902;7.636;2022-08-06T03:32:39;3.13;;;2.53;;
5533;SDS011;2789;51.902;7.636;2022-08-06T03:33:53;4.10;;;2.22;;
5533;SDS011;2789;51.902;7.636;2022-08-06T03:34:56;2.67;;;2.47;;
5533;SDS011;2789;51.902;7.636;2022-08-06T03:36:00;2.50;;;2.28;;
5533;SDS011;2789;51.902;7.636;2022-08-06T03:37:04;2.92;;;2.72;;
5533;SDS011;2789;51.902;7.636;2022-08-06T03:38:09;3.08;;;2.50;;
5533;SDS011;2789;51.902;7.636;2022-08-06T03:39:11;3.20;;;2.33;;
5533;SDS011;2789;51.902;7.636;2022-08-06T03:40:22;5.90;;;2.55;;
5533;SDS011;2789;51.902;7.636;2022-08-06T03:41:25;2.58;;;2.38;;
5533;SDS011;2789;51.902;7.636;2022-08-06T03:42:40;2.65;;;2.22;;
5533;SDS011;2789;51.902;7.636;2022-08-06T03:43:44;4.45;;;2.60;;
5533;SDS011;2789;51.902;7.636;2022-08-06T03:45:04;3.15;;;2.75;;
5533;SDS011;2789;51.902;7.636;2022-08-06T03:47:46;3.03;;;2.50;;
5533;SDS011;2789;51.902;7.636;2022-08-06T03:49:09;4.95;;;2.70;;
5533;SDS011;2789;51.902;7.636;2022-08-06T03:50:15;2.60;;;2.40;;
5533;SDS011;2789;51.902;7.636;2022-08-06T03:51:20;2.78;;;2.50;;
5533;SDS011;2789;51.902;7.636;2022-08-06T03:52:44;2.25;;;2.03;;
5533;SDS011;2789;51.902;7.636;2022-08-06T03:53:50;5.15;;;2.35;;
5533;SDS011;2789;51.902;7.636;2022-08-06T03:54:54;2.55;;;2.33;;
5533;SDS011;2789;51.902;7.636;2022-08-06T03:55:57;4.45;;;2.25;;
5533;SDS011;2789;51.902;7.636;2022-08-06T03:57:06;2.42;;;2.22;;
5533;SDS011;2789;51.902;7.636;2022-08-06T03:58:12;3.15;;;2.60;;
5533;SDS011;2789;51.902;7.636;2022-08-06T03:59:28;3.97;;;2.40;;
5533;SDS011;2789;51.902;7.636;2022-08-06T04:00:44;2.67;;;2.38;;
5533;SDS011;2789;51.902;7.636;2022-08-06T04:01:50;3.50;;;2.53;;
5533;SDS011;2789;51.902;7.636;2022-08-06T04:02:56;2.45;;;2.25;;
5533;SDS011;2789;51.902;7.636;2022-08-06T04:04:03;3.10;;;2.55;;
5533;SDS011;2789;51.902;7.636;2022-08-06T04:05:27;3.50;;;2.60;;
5533;SDS011;2789;51.902;7.636;2022-08-06T04:06:32;4.60;;;3.13;;
5533;SDS011;2789;51.902;7.636;2022-08-06T04:07:34;2.88;;;2.58;;
5533;SDS011;2789;51.902;7.636;2022-08-06T04:08:56;3.30;;;2.70;;
5533;SDS011;2789;51.902;7.636;2022-08-06T04:10:00;3.13;;;2.78;;
5533;SDS011;2789;51.902;7.636;2022-08-06T04:11:02;2.88;;;2.60;;
5533;SDS011;2789;51.902;7.636;2022-08-06T04:12:06;5.25;;;2.97;;
5533;SDS011;2789;51.902;7.636;2022-08-06T04:13:28;3.35;;;2.60;;
5533;SDS011;2789;51.902;7.636;2022-08-06T04:14:51;2.95;;;2.75;;
5533;SDS011;2789;51.902;7.636;2022-08-06T04:15:53;5.38;;;2.33;;
5533;SDS011;2789;51.902;7.636;2022-08-06T04:16:58;3.58;;;2.63;;
5533;SDS011;2789;51.902;7.636;2022-08-06T04:18:00;4.43;;;2.95;;
5533;SDS011;2789;51.902;7.636;2022-08-06T04:19:05;2.72;;;2.53;;
5533;SDS011;2789;51.902;7.636;2022-08-06T04:20:16;6.63;;;2.85;;
5533;SDS011;2789;51.902;7.636;2022-08-06T04:21:40;2.60;;;2.40;;
5533;SDS011;2789;51.902;7.636;2022-08-06T04:23:02;3.30;;;3.00;;
5533;SDS011;2789;51.902;7.636;2022-08-06T04:24:10;3.38;;;3.08;;
5533;SDS011;2789;51.902;7.636;2022-08-06T04:25:15;4.78;;;2.88;;
5533;SDS011;2789;51.902;7.636;2022-08-06T04:26:18;5.45;;;4.00;;
5533;SDS011;2789;51.902;7.636;2022-08-06T04:27:25;2.97;;;2.72;;
5533;SDS011;2789;51.902;7.636;2022-08-06T04:28:31;5.88;;;2.92;;
5533;SDS011;2789;51.902;7.636;2022-08-06T04:29:41;3.35;;;2.70;;
5533;SDS011;2789;51.902;7.636;2022-08-06T04:30:59;3.75;;;2.97;;
5533;SDS011;2789;51.902;7.636;2022-08-06T04:32:07;5.18;;;3.28;;
5533;SDS011;2789;51.902;7.636;2022-08-06T04:33:21;3.17;;;2.80;;
5533;SDS011;2789;51.902;7.636;2022-08-06T04:34:36;3.58;;;2.75;;
5533;SDS011;2789;51.902;7.636;2022-08-06T04:35:59;3.58;;;3.28;;
5533;SDS011;2789;51.902;7.636;2022-08-06T04:37:24;3.47;;;3.17;;
5533;SDS011;2789;51.902;7.636;2022-08-06T04:38:39;8.23;;;3.45;;
5533;SDS011;2789;51.902;7.636;2022-08-06T04:39:41;3.08;;;2.55;;
5533;SDS011;2789;51.902;7.636;2022-08-06T04:40:50;3.08;;;2.75;;
5533;SDS011;2789;51.902;7.636;2022-08-06T04:41:54;3.58;;;2.70;;
5533;SDS011;2789;51.902;7.636;2022-08-06T04:43:05;3.75;;;3.30;;
5533;SDS011;2789;51.902;7.636;2022-08-06T04:44:08;3.45;;;2.83;;
5533;SDS011;2789;51.902;7.636;2022-08-06T04:45:14;3.20;;;2.80;;
5533;SDS011;2789;51.902;7.636;2022-08-06T04:46:36;6.13;;;2.70;;
5533;SDS011;2789;51.902;7.636;2022-08-06T04:47:42;7.03;;;3.28;;
5533;SDS011;2789;51.902;7.636;2022-08-06T04:48:48;3.25;;;2.95;;
5533;SDS011;2789;51.902;7.636;2022-08-06T04:49:57;3.05;;;2.85;;
5533;SDS011;2789;51.902;7.636;2022-08-06T04:51:09;6.85;;;2.80;;
5533;SDS011;2789;51.902;7.636;2022-08-06T04:52:33;2.85;;;2.65;;
5533;SDS011;2789;51.902;7.636;2022-08-06T04:53:50;3.88;;;2.30;;
5533;SDS011;2789;51.902;7.636;2022-08-06T04:54:57;5.63;;;2.78;;
5533;SDS011;2789;51.902;7.636;2022-08-06T04:56:00;4.28;;;2.78;;
5533;SDS011;2789;51.902;7.636;2022-08-06T04:57:04;3.45;;;2.60;;
5533;SDS011;2789;51.902;7.636;2022-08-06T04:58:22;3.28;;;2.10;;
5533;SDS011;2789;51.902;7.636;2022-08-06T04:59:33;3.40;;;1.83;;
5533;SDS011;2789;51.902;7.636;2022-08-06T05:00:51;3.00;;;2.00;;
5533;SDS011;2789;51.902;7.636;2022-08-06T05:02:06;3.65;;;2.40;;
5533;SDS011;2789;51.902;7.636;2022-08-06T05:03:13;2.88;;;2.20;;
5533;SDS011;2789;51.902;7.636;2022-08-06T05:04:16;2.10;;;1.90;;
5533;SDS011;2789;51.902;7.636;2022-08-06T05:05:23;4.75;;;2.42;;
5533;SDS011;2789;51.902;7.636;2022-08-06T05:06:25;2.28;;;1.85;;
5533;SDS011;2789;51.902;7.636;2022-08-06T05:07:34;3.88;;;2.03;;
5533;SDS011;2789;51.902;7.636;2022-08-06T05:08:53;2.55;;;1.75;;
5533;SDS011;2789;51.902;7.636;2022-08-06T05:09:58;2.28;;;2.08;;
5533;SDS011;2789;51.902;7.636;2022-08-06T05:11:04;2.22;;;1.77;;
5533;SDS011;2789;51.902;7.636;2022-08-06T05:12:13;3.15;;;2.30;;
5533;SDS011;2789;51.902;7.636;2022-08-06T05:13:23;3.97;;;2.70;;
5533;SDS011;2789;51.902;7.636;2022-08-06T05:14:40;2.60;;;2.28;;
5533;SDS011;2789;51.902;7.636;2022-08-06T05:15:49;2.17;;;2.00;;
5533;SDS011;2789;51.902;7.636;2022-08-06T05:16:58;2.75;;;2.00;;
5533;SDS011;2789;51.902;7.636;2022-08-06T05:18:15;1.92;;;1.80;;
5533;SDS011;2789;51.902;7.636;2022-08-06T05:19:41;3.00;;;1.63;;
5533;SDS011;2789;51.902;7.636;2022-08-06T05:20:47;3.83;;;1.90;;
5533;SDS011;2789;51.902;7.636;2022-08-06T05:21:50;1.95;;;1.70;;
5533;SDS011;2789;51.902;7.636;2022-08-06T05:23:15;2.33;;;1.65;;
5533;SDS011;2789;51.902;7.636;2022-08-06T05:24:21;2.45;;;1.60;;
5533;SDS011;2789;51.902;7.636;2022-08-06T05:25:39;2.20;;;1.60;;
5533;SDS011;2789;51.902;7.636;2022-08-06T05:26:54;2.40;;;1.75;;
5533;SDS011;2789;51.902;7.636;2022-08-06T05:27:56;2.35;;;1.65;;
5533;SDS011;2789;51.902;7.636;2022-08-06T05:29:11;1.88;;;1.65;;
5533;SDS011;2789;51.902;7.636;2022-08-06T05:30:14;1.63;;;1.38;;
5533;SDS011;2789;51.902;7.636;2022-08-06T05:31:27;2.03;;;1.60;;
5533;SDS011;2789;51.902;7.636;2022-08-06T05:32:41;2.08;;;1.90;;
5533;SDS011;2789;51.902;7.636;2022-08-06T05:33:47;4.28;;;2.05;;
5533;SDS011;2789;51.902;7.636;2022-08-06T05:34:48;5.57;;;1.70;;
5533;SDS011;2789;51.902;7.636;2022-08-06T05:35:53;1.80;;;1.65;;
5533;SDS011;2789;51.902;7.636;2022-08-06T05:37:05;1.67;;;1.58;;
5533;SDS011;2789;51.902;7.636;2022-08-06T05:38:10;3.22;;;1.45;;
5533;SDS011;2789;51.902;7.636;2022-08-06T05:39:12;2.33;;;1.50;;
5533;SDS011;2789;51.902;7.636;2022-08-06T05:40:34;1.77;;;1.60;;
5533;SDS011;2789;51.902;7.636;2022-08-06T05:41:57;2.90;;;1.65;;
5533;SDS011;2789;51.902;7.636;2022-08-06T05:43:01;1.60;;;1.50;;
5533;SDS011;2789;51.902;7.636;2022-08-06T05:44:03;2.42;;;1.60;;
5533;SDS011;2789;51.902;7.636;2022-08-06T05:45:08;1.60;;;1.48;;
5533;SDS011;2789;51.902;7.636;2022-08-06T05:46:13;2.83;;;1.92;;
5533;SDS011;2789;51.902;7.636;2022-08-06T05:47:18;2.20;;;2.00;;
5533;SDS011;2789;51.902;7.636;2022-08-06T05:48:23;2.88;;;1.65;;
5533;SDS011;2789;51.902;7.636;2022-08-06T05:49:32;2.30;;;1.30;;
5533;SDS011;2789;51.902;7.636;2022-08-06T05:50:56;2.83;;;1.60;;
5533;SDS011;2789;51.902;7.636;2022-08-06T05:52:06;2.47;;;1.90;;
5533;SDS011;2789;51.902;7.636;2022-08-06T05:53:15;3.47;;;1.50;;
5533;SDS011;2789;51.902;7.636;2022-08-06T05:54:39;9.35;;;2.20;;
5533;SDS011;2789;51.902;7.636;2022-08-06T05:55:46;2.20;;;1.50;;
5533;SDS011;2789;51.902;7.636;2022-08-06T05:56:55;2.35;;;1.77;;
5533;SDS011;2789;51.902;7.636;2022-08-06T05:58:06;2.45;;;1.48;;
5533;SDS011;2789;51.902;7.636;2022-08-06T05:59:15;4.65;;;1.90;;
5533;SDS011;2789;51.902;7.636;2022-08-06T06:00:40;3.50;;;1.52;;
5533;SDS011;2789;51.902;7.636;2022-08-06T06:01:45;4.10;;;1.92;;
5533;SDS011;2789;51.902;7.636;2022-08-06T06:02:50;1.80;;;1.48;;
5533;SDS011;2789;51.902;7.636;2022-08-06T06:03:55;4.18;;;1.70;;
5533;SDS011;2789;51.902;7.636;2022-08-06T06:04:59;1.83;;;1.38;;
5533;SDS011;2789;51.902;7.636;2022-08-06T06:06:22;5.30;;;1.70;;
5533;SDS011;2789;51.902;7.636;2022-08-06T06:07:24;2.65;;;1.95;;
5533;SDS011;2789;51.902;7.636;2022-08-06T06:08:47;3.17;;;1.45;;
5533;SDS011;2789;51.902;7.636;2022-08-06T06:09:59;3.42;;;1.67;;
5533;SDS011;2789;51.902;7.636;2022-08-06T06:11:04;1.67;;;1.48;;
5533;SDS011;2789;51.902;7.636;2022-08-06T06:12:10;1.70;;;1.60;;
5533;SDS011;2789;51.902;7.636;2022-08-06T06:13:18;3.88;;;1.90;;
5533;SDS011;2789;51.902;7.636;2022-08-06T06:14:34;2.45;;;1.45;;
5533;SDS011;2789;51.902;7.636;2022-08-06T06:15:41;3.03;;;2.00;;
5533;SDS011;2789;51.902;7.636;2022-08-06T06:17:10;2.28;;;1.70;;
5533;SDS011;2789;51.902;7.636;2022-08-06T06:18:24;4.95;;;1.50;;
5533;SDS011;2789;51.902;7.636;2022-08-06T06:19:37;2.92;;;1.77;;
5533;SDS011;2789;51.902;7.636;2022-08-06T06:20:55;3.22;;;1.40;;
5533;SDS011;2789;51.902;7.636;2022-08-06T06:22:21;2.53;;;1.70;;
5533;SDS011;2789;51.902;7.636;2022-08-06T06:23:29;3.80;;;1.83;;
5533;SDS011;2789;51.902;7.636;2022-08-06T06:24:35;3.17;;;1.65;;
5533;SDS011;2789;51.902;7.636;2022-08-06T06:25:45;4.40;;;1.40;;
5533;SDS011;2789;51.902;7.636;2022-08-06T06:26:55;4.85;;;1.40;;
5533;SDS011;2789;51.902;7.636;2022-08-06T06:28:05;4.78;;;1.80;;
5533;SDS011;2789;51.902;7.636;2022-08-06T06:29:31;2.55;;;1.90;;
5533;SDS011;2789;51.902;7.636;2022-08-06T06:30:58;3.00;;;1.67;;
5533;SDS011;2789;51.902;7.636;2022-08-06T06:32:04;3.25;;;1.70;;
5533;SDS011;2789;51.902;7.636;2022-08-06T06:33:34;4.45;;;1.67;;
5533;SDS011;2789;51.902;7.636;2022-08-06T06:34:50;1.95;;;1.38;;
5533;SDS011;2789;51.902;7.636;2022-08-06T06:35:56;2.35;;;1.52;;
5533;SDS011;2789;51.902;7.636;2022-08-06T06:37:03;1.67;;;1.52;;
5533;SDS011;2789;51.902;7.636;2022-08-06T06:38:18;4.43;;;1.60;;
5533;SDS011;2789;51.902;7.636;2022-08-06T06:39:27;3.08;;;1.65;;
5533;SDS011;2789;51.902;7.636;2022-08-06T06:40:42;2.53;;;1.50;;
5533;SDS011;2789;51.902;7.636;2022-08-06T06:42:04;1.77;;;1.52;;
5533;SDS011;2789;51.902;7.636;2022-08-06T06:43:11;1.77;;;1.60;;
5533;SDS011;2789;51.902;7.636;2022-08-06T06:44:21;1.90;;;1.30;;
5533;SDS011;2789;51.902;7.636;2022-08-06T06:45:48;2.50;;;1.30;;
5533;SDS011;2789;51.902;7.636;2022-08-06T06:47:14;2.28;;;1.48;;
5533;SDS011;2789;51.902;7.636;2022-08-06T06:48:19;3.08;;;1.20;;
5533;SDS011;2789;51.902;7.636;2022-08-06T06:49:24;2.72;;;1.10;;
5533;SDS011;2789;51.902;7.636;2022-08-06T06:50:51;1.40;;;1.30;;
5533;SDS011;2789;51.902;7.636;2022-08-06T06:51:56;1.65;;;1.15;;
5533;SDS011;2789;51.902;7.636;2022-08-06T06:53:09;2.47;;;1.45;;
5533;SDS011;2789;51.902;7.636;2022-08-06T06:54:12;1.40;;;1.23;;
5533;SDS011;2789;51.902;7.636;2022-08-06T06:55:24;2.92;;;1.35;;
5533;SDS011;2789;51.902;7.636;2022-08-06T06:56:54;3.40;;;1.20;;
5533;SDS011;2789;51.902;7.636;2022-08-06T06:58:06;2.58;;;1.45;;
5533;SDS011;2789;51.902;7.636;2022-08-06T06:59:11;1.30;;;1.20;;
5533;SDS011;2789;51.902;7.636;2022-08-06T07:00:18;2.65;;;1.40;;
5533;SDS011;2789;51.902;7.636;2022-08-06T07:01:40;1.63;;;1.30;;
5533;SDS011;2789;51.902;7.636;2022-08-06T07:02:55;1.92;;;1.20;;
5533;SDS011;2789;51.902;7.636;2022-08-06T07:04:02;4.10;;;1.40;;
5533;SDS011;2789;51.902;7.636;2022-08-06T07:05:09;4.15;;;1.85;;
5533;SDS011;2789;51.902;7.636;2022-08-06T07:06:11;1.77;;;1.55;;
5533;SDS011;2789;51.902;7.636;2022-08-06T07:07:34;6.10;;;1.00;;
5533;SDS011;2789;51.902;7.636;2022-08-06T07:08:40;1.95;;;1.02;;
5533;SDS011;2789;51.902;7.636;2022-08-06T07:09:46;1.38;;;0.90;;
5533;SDS011;2789;51.902;7.636;2022-08-06T07:10:59;1.10;;;0.80;;
5533;SDS011;2789;51.902;7.636;2022-08-06T07:12:02;1.50;;;1.23;;
5533;SDS011;2789;51.902;7.636;2022-08-06T07:13:20;1.75;;;0.85;;
5533;SDS011;2789;51.902;7.636;2022-08-06T07:14:42;1.83;;;0.60;;
5533;SDS011;2789;51.902;7.636;2022-08-06T07:15:45;1.90;;;0.70;;
5533;SDS011;2789;51.902;7.636;2022-08-06T07:16:54;1.42;;;0.90;;